Time;durP1;ratioP1;P1;durP2;ratioP2;P2;SDS_P1;SDS_P2;PMS_P1;PMS_P2;Temp;Humidity;BMP_temperature;BMP_pressure;BME280_temperature;BME280_humidity;BME280_pressure;Samples;Min_cycle;Max_cycle;Signal;HPM_P1;HPM_P2
2022/02/20 00:02:10;;;;;;;36.90;30.35;;;7.10;99.90;;;;;;5040062;28;20288;-73
2022/02/20 00:04:38;;;;;;;33.78;29.05;;;7.00;99.90;;;;;;5037240;28;20572;-72
2022/02/20 00:07:05;;;;;;;35.55;29.25;;;7.00;99.90;;;;;;5033074;28;20219;-75
2022/02/20 00:09:32;;;;;;;36.80;29.77;;;6.90;99.90;;;;;;5037595;28;20314;-71
2022/02/20 00:12:00;;;;;;;33.00;27.08;;;6.90;99.90;;;;;;5035795;28;20292;-75
2022/02/20 00:14:27;;;;;;;30.08;26.48;;;6.80;99.90;;;;;;5035883;28;20238;-72
2022/02/20 00:16:55;;;;;;;31.27;25.10;;;6.80;99.90;;;;;;5037954;28;20727;-72
2022/02/20 00:19:22;;;;;;;30.88;25.75;;;6.90;99.90;;;;;;5034371;28;20219;-71
2022/02/20 00:21:49;;;;;;;37.00;29.73;;;6.90;99.90;;;;;;5039043;28;20219;-72
2022/02/20 00:24:16;;;;;;;36.92;31.30;;;6.80;99.90;;;;;;5038750;28;20203;-73
2022/02/20 00:26:43;;;;;;;34.88;30.10;;;6.80;99.90;;;;;;5040247;28;20388;-74
2022/02/20 00:29:10;;;;;;;32.85;26.77;;;6.70;99.90;;;;;;5036983;28;20481;-73
2022/02/20 00:31:37;;;;;;;33.92;26.33;;;6.70;99.90;;;;;;5039495;28;20257;-73
2022/02/20 00:34:06;;;;;;;33.35;25.92;;;6.80;99.90;;;;;;5037746;28;20207;-72
2022/02/20 00:36:33;;;;;;;55.05;42.97;;;6.80;99.90;;;;;;5036897;28;20226;-71
2022/02/20 00:39:00;;;;;;;44.08;34.65;;;6.80;99.90;;;;;;5039269;28;20222;-75
2022/02/20 00:41:27;;;;;;;38.30;32.50;;;6.80;99.90;;;;;;5037663;28;20284;-71
2022/02/20 00:43:54;;;;;;;38.10;29.88;;;6.80;99.90;;;;;;5033564;28;20301;-72
2022/02/20 00:46:21;;;;;;;34.85;28.13;;;6.80;99.90;;;;;;5040016;28;20276;-72
2022/02/20 00:48:48;;;;;;;34.10;29.15;;;6.80;99.90;;;;;;5038698;28;20253;-73
2022/02/20 00:51:16;;;;;;;36.03;28.20;;;6.80;99.90;;;;;;5039021;28;20218;-72
2022/02/20 00:53:43;;;;;;;32.10;26.70;;;6.90;99.90;;;;;;5039080;28;20208;-72
2022/02/20 00:56:10;;;;;;;30.80;26.05;;;6.90;99.90;;;;;;5044269;28;21007;-72
2022/02/20 00:58:37;;;;;;;31.33;25.88;;;6.90;99.90;;;;;;5060682;28;20212;-72
2022/02/20 01:01:05;;;;;;;31.20;25.38;;;7.00;99.90;;;;;;5054614;28;20920;-73
2022/02/20 01:03:32;;;;;;;34.72;28.90;;;7.00;99.90;;;;;;5057858;28;20208;-72
2022/02/20 01:05:59;;;;;;;30.92;25.95;;;7.00;99.90;;;;;;5061413;28;20198;-72
2022/02/20 01:08:27;;;;;;;29.38;24.75;;;6.90;99.90;;;;;;5066945;28;20654;-72
2022/02/20 01:10:54;;;;;;;27.67;23.70;;;6.90;99.90;;;;;;5060138;28;20613;-71
2022/02/20 01:13:21;;;;;;;28.15;23.67;;;6.90;99.90;;;;;;5063379;28;20265;-72
2022/02/20 01:15:48;;;;;;;28.13;22.00;;;6.90;99.90;;;;;;5057115;28;20692;-74
2022/02/20 01:18:15;;;;;;;27.50;23.67;;;6.90;99.90;;;;;;5062779;28;20263;-73
2022/02/20 01:20:42;;;;;;;25.98;22.60;;;6.80;99.90;;;;;;5065753;28;20218;-74
2022/02/20 01:23:09;;;;;;;28.25;24.42;;;6.80;99.90;;;;;;5062591;28;20262;-74
2022/02/20 01:25:38;;;;;;;22.60;19.67;;;6.80;99.90;;;;;;5061909;28;20195;-72
2022/02/20 01:28:05;;;;;;;20.58;18.27;;;6.70;99.90;;;;;;5060002;28;20334;-72
2022/02/20 01:30:32;;;;;;;18.75;16.70;;;6.70;99.90;;;;;;5060549;28;20572;-72
2022/02/20 01:32:59;;;;;;;17.13;15.02;;;6.70;99.90;;;;;;5062344;28;20229;-73
2022/02/20 01:35:26;;;;;;;18.05;15.55;;;6.70;99.90;;;;;;5064683;28;20226;-75
2022/02/20 01:37:53;;;;;;;17.88;14.63;;;6.60;99.90;;;;;;5059167;28;20214;-74
2022/02/20 01:40:20;;;;;;;15.32;13.73;;;6.50;99.90;;;;;;5063848;28;20225;-73
2022/02/20 01:42:49;;;;;;;16.30;14.30;;;6.50;99.90;;;;;;5058210;28;20218;-73
2022/02/20 01:45:17;;;;;;;16.25;14.55;;;6.40;99.90;;;;;;5065461;28;20229;-72
2022/02/20 01:47:44;;;;;;;16.23;14.55;;;6.40;99.90;;;;;;5061091;28;20276;-74
2022/02/20 01:50:15;;;;;;;14.73;13.23;;;6.40;99.90;;;;;;5056952;28;20248;-72
2022/02/20 01:52:42;;;;;;;15.50;13.82;;;6.40;99.90;;;;;;5064001;28;20303;-74
2022/02/20 01:55:10;;;;;;;14.32;12.82;;;6.40;99.90;;;;;;5062119;28;20214;-73
2022/02/20 01:57:38;;;;;;;16.15;12.85;;;6.50;99.90;;;;;;5062927;28;20226;-72
2022/02/20 02:00:10;;;;;;;16.05;13.70;;;6.50;99.90;;;;;;5060177;28;20230;-73
2022/02/20 02:02:37;;;;;;;13.77;12.15;;;6.50;99.90;;;;;;5058826;28;20275;-74
2022/02/20 02:05:05;;;;;;;15.23;12.75;;;6.40;99.90;;;;;;5061104;28;20201;-75
2022/02/20 02:07:32;;;;;;;13.55;11.70;;;6.40;99.90;;;;;;5059595;28;20953;-73
2022/02/20 02:09:59;;;;;;;13.57;12.27;;;6.40;99.90;;;;;;5059060;28;20228;-73
2022/02/20 02:12:27;;;;;;;15.40;12.73;;;6.30;99.90;;;;;;5061465;28;20218;-73
2022/02/20 02:14:55;;;;;;;12.95;11.23;;;6.20;99.90;;;;;;5061869;28;20214;-74
2022/02/20 02:17:24;;;;;;;13.55;11.80;;;6.20;99.90;;;;;;5063445;28;20268;-72
2022/02/20 02:19:51;;;;;;;12.15;10.95;;;6.20;99.90;;;;;;5060350;28;20237;-72
2022/02/20 02:22:20;;;;;;;12.20;10.68;;;6.10;99.90;;;;;;5061826;28;20222;-72
2022/02/20 02:24:48;;;;;;;10.93;9.75;;;6.10;99.90;;;;;;5064333;28;20671;-72
2022/02/20 02:27:15;;;;;;;11.27;10.18;;;6.10;99.90;;;;;;5061781;28;20275;-72
2022/02/20 02:29:44;;;;;;;12.30;10.80;;;6.00;99.90;;;;;;5060709;28;20228;-71
2022/02/20 02:32:12;;;;;;;11.55;10.35;;;5.90;99.90;;;;;;5061144;28;20242;-72
2022/02/20 02:34:40;;;;;;;12.80;11.15;;;5.90;99.90;;;;;;5064246;28;20642;-73
2022/02/20 02:37:07;;;;;;;11.85;10.65;;;5.80;99.90;;;;;;5059860;28;22101;-72
2022/02/20 02:39:36;;;;;;;10.77;9.68;;;5.80;99.90;;;;;;5061899;28;20630;-72
2022/02/20 02:42:04;;;;;;;11.75;9.95;;;5.80;99.90;;;;;;5060386;28;20219;-72
2022/02/20 02:44:31;;;;;;;11.07;9.98;;;5.70;99.90;;;;;;5062821;28;20255;-71
2022/02/20 02:46:58;;;;;;;10.90;9.52;;;5.70;99.90;;;;;;5061026;28;20223;-72
2022/02/20 02:49:25;;;;;;;11.82;10.23;;;5.60;99.90;;;;;;5063047;28;20225;-72
2022/02/20 02:51:52;;;;;;;10.57;9.57;;;5.60;99.90;;;;;;5065890;28;20218;-72
2022/02/20 02:54:22;;;;;;;10.68;9.57;;;5.60;99.90;;;;;;5063862;28;20218;-72
2022/02/20 02:56:51;;;;;;;12.25;10.07;;;5.60;99.90;;;;;;5063204;28;20222;-72
2022/02/20 02:59:19;;;;;;;10.82;9.73;;;5.50;99.90;;;;;;5059707;28;20230;-72
2022/02/20 03:01:48;;;;;;;11.63;10.43;;;5.50;99.90;;;;;;5064126;28;20220;-73
2022/02/20 03:04:15;;;;;;;11.02;9.93;;;5.40;99.90;;;;;;5063317;28;20201;-72
2022/02/20 03:06:42;;;;;;;16.58;11.48;;;5.40;99.90;;;;;;5065872;28;20222;-73
2022/02/20 03:09:09;;;;;;;21.10;15.23;;;5.40;99.90;;;;;;5065020;28;21274;-73
2022/02/20 03:11:36;;;;;;;32.75;20.52;;;5.40;99.90;;;;;;5066959;28;21155;-72
2022/02/20 03:14:05;;;;;;;33.05;20.98;;;5.40;99.90;;;;;;5107410;22;20206;-73
2022/02/20 03:16:32;;;;;;;25.25;17.25;;;5.30;99.90;;;;;;5060878;28;20233;-73
2022/02/20 03:19:00;;;;;;;24.10;16.90;;;5.30;99.90;;;;;;5059145;28;20190;-73
2022/02/20 03:21:28;;;;;;;19.45;13.55;;;5.20;99.90;;;;;;5061634;28;20256;-74
2022/02/20 03:23:55;;;;;;;16.92;13.18;;;5.20;99.90;;;;;;5076989;28;20190;-75
2022/02/20 03:26:22;;;;;;;18.20;12.18;;;5.20;99.90;;;;;;5063974;28;20194;-73
2022/02/20 03:28:49;;;;;;;14.07;11.05;;;5.20;99.90;;;;;;5063755;28;20616;-72
2022/02/20 03:31:18;;;;;;;12.13;10.13;;;5.20;99.90;;;;;;5060861;28;20210;-73
2022/02/20 03:33:45;;;;;;;11.15;9.98;;;5.10;99.90;;;;;;5063130;28;20202;-73
2022/02/20 03:36:12;;;;;;;11.77;9.63;;;5.10;99.90;;;;;;5061099;28;20222;-73
2022/02/20 03:38:39;;;;;;;10.93;9.57;;;5.10;99.90;;;;;;5063116;28;20214;-73
2022/02/20 03:41:06;;;;;;;9.90;8.90;;;5.10;99.90;;;;;;5060065;28;20205;-73
2022/02/20 03:43:34;;;;;;;9.98;8.90;;;5.10;99.90;;;;;;5065262;28;20225;-73
2022/02/20 03:46:01;;;;;;;9.25;8.38;;;5.10;99.90;;;;;;5061328;28;20368;-72
2022/02/20 03:48:29;;;;;;;9.60;8.57;;;5.10;99.90;;;;;;5061289;28;20268;-74
2022/02/20 03:50:56;;;;;;;10.15;9.13;;;5.10;99.90;;;;;;5064319;28;20210;-73
2022/02/20 03:53:23;;;;;;;9.05;8.20;;;5.10;99.90;;;;;;5058883;28;20218;-73
2022/02/20 03:55:50;;;;;;;9.02;8.23;;;5.00;99.90;;;;;;5060827;28;20248;-73
2022/02/20 03:58:17;;;;;;;7.88;7.15;;;5.00;99.90;;;;;;5061240;28;20233;-73
2022/02/20 04:00:44;;;;;;;7.80;7.10;;;5.00;99.90;;;;;;5062111;28;20625;-72
2022/02/20 04:03:11;;;;;;;8.25;7.45;;;5.00;99.90;;;;;;5057086;28;20708;-73
2022/02/20 04:05:40;;;;;;;8.88;8.00;;;5.00;99.90;;;;;;5060636;28;20206;-73
2022/02/20 04:08:07;;;;;;;8.77;7.97;;;5.00;99.90;;;;;;5045503;28;20227;-73
2022/02/20 04:10:34;;;;;;;10.13;8.75;;;4.90;99.90;;;;;;5042569;28;20286;-73
2022/02/20 04:13:01;;;;;;;8.63;7.82;;;4.90;99.90;;;;;;5041234;28;20226;-73
2022/02/20 04:15:28;;;;;;;8.43;7.63;;;4.80;99.90;;;;;;5045555;28;20227;-74
2022/02/20 04:17:55;;;;;;;9.20;8.23;;;4.80;99.90;;;;;;5058775;28;20233;-72
2022/02/20 04:20:23;;;;;;;9.05;8.15;;;4.80;99.90;;;;;;5040629;28;20239;-73
2022/02/20 04:22:51;;;;;;;8.43;7.60;;;4.80;99.90;;;;;;5042055;28;20264;-73
2022/02/20 04:25:18;;;;;;;7.82;7.13;;;4.80;99.90;;;;;;5043255;28;20246;-73
2022/02/20 04:27:45;;;;;;;9.10;8.23;;;4.80;99.90;;;;;;5054154;28;20267;-73
2022/02/20 04:30:16;;;;;;;9.43;8.52;;;4.80;99.90;;;;;;5060362;28;20495;-73
2022/02/20 04:32:43;;;;;;;9.25;8.30;;;4.70;99.90;;;;;;5059484;28;20305;-73
2022/02/20 04:35:10;;;;;;;8.00;7.20;;;4.60;99.90;;;;;;5060643;28;20223;-73
2022/02/20 04:37:37;;;;;;;9.60;8.60;;;4.50;99.90;;;;;;5062880;28;20272;-74
2022/02/20 04:40:07;;;;;;;10.20;8.35;;;4.50;99.90;;;;;;5055083;28;20657;-73
2022/02/20 04:42:34;;;;;;;10.38;9.05;;;4.40;99.90;;;;;;5060407;28;20225;-74
2022/02/20 04:45:01;;;;;;;9.85;8.88;;;4.30;99.90;;;;;;5057248;28;20701;-73
2022/02/20 04:47:29;;;;;;;8.43;7.63;;;4.30;99.90;;;;;;5061387;28;20217;-74
2022/02/20 04:49:56;;;;;;;8.18;7.43;;;4.30;99.90;;;;;;5058360;28;20208;-72
2022/02/20 04:52:23;;;;;;;8.82;8.02;;;4.20;99.90;;;;;;5063261;28;20214;-74
2022/02/20 04:54:50;;;;;;;7.68;6.97;;;4.20;99.90;;;;;;5062444;28;20218;-73
2022/02/20 04:57:18;;;;;;;9.30;7.65;;;4.20;99.90;;;;;;5056739;28;20295;-74
2022/02/20 04:59:45;;;;;;;7.93;7.18;;;4.20;99.90;;;;;;5056275;28;20198;-73
2022/02/20 05:02:12;;;;;;;7.05;6.45;;;4.20;99.90;;;;;;5061989;28;20218;-73
2022/02/20 05:04:39;;;;;;;7.18;6.53;;;4.20;99.90;;;;;;5058442;28;20259;-74
2022/02/20 05:07:08;;;;;;;8.48;7.68;;;4.20;99.90;;;;;;5063941;28;20620;-73
2022/02/20 05:09:36;;;;;;;8.23;7.47;;;4.20;99.90;;;;;;5061400;28;20201;-74
2022/02/20 05:12:05;;;;;;;8.70;7.90;;;4.20;99.90;;;;;;5074651;28;20222;-74
2022/02/20 05:14:33;;;;;;;8.40;7.50;;;4.10;99.90;;;;;;5063030;28;20305;-71
2022/02/20 05:17:00;;;;;;;7.65;6.95;;;4.10;99.90;;;;;;5056835;28;20229;-73
2022/02/20 05:19:27;;;;;;;8.10;7.30;;;4.10;99.90;;;;;;5060338;28;20249;-73
2022/02/20 05:21:54;;;;;;;7.47;6.88;;;4.20;99.90;;;;;;5054070;28;20205;-74
2022/02/20 05:24:21;;;;;;;8.00;7.20;;;4.10;99.90;;;;;;5061507;28;20230;-74
2022/02/20 05:26:48;;;;;;;6.43;5.82;;;4.10;99.90;;;;;;5058578;28;20248;-74
2022/02/20 05:29:15;;;;;;;7.53;6.80;;;4.10;99.90;;;;;;5059004;28;20195;-72
2022/02/20 05:31:44;;;;;;;7.18;6.47;;;4.10;99.90;;;;;;5059420;28;20209;-73
2022/02/20 05:34:11;;;;;;;8.10;7.22;;;4.10;99.90;;;;;;5057337;28;20268;-74
2022/02/20 05:36:38;;;;;;;7.57;6.88;;;4.10;99.90;;;;;;5058449;28;20287;-73
2022/02/20 05:39:05;;;;;;;7.55;6.80;;;4.10;99.90;;;;;;5057304;28;20562;-73
2022/02/20 05:41:32;;;;;;;7.60;6.93;;;4.10;99.90;;;;;;5058725;28;20194;-74
2022/02/20 05:43:59;;;;;;;8.00;7.30;;;4.10;99.90;;;;;;5060277;28;20211;-73
2022/02/20 05:46:26;;;;;;;7.45;6.38;;;4.10;99.90;;;;;;5059034;28;20598;-73
2022/02/20 05:48:55;;;;;;;6.68;6.18;;;4.10;99.90;;;;;;5062103;28;20720;-73
2022/02/20 05:51:22;;;;;;;6.65;6.13;;;4.10;99.90;;;;;;5054678;28;20194;-73
2022/02/20 05:53:49;;;;;;;6.97;6.38;;;4.10;99.90;;;;;;5058770;28;22110;-73
2022/02/20 05:56:17;;;;;;;7.05;6.35;;;4.10;99.90;;;;;;5058490;28;20222;-74
2022/02/20 05:58:44;;;;;;;6.70;6.15;;;4.10;99.90;;;;;;5058191;28;20305;-71
2022/02/20 06:01:11;;;;;;;6.65;6.05;;;4.10;99.90;;;;;;5054859;28;20282;-75
2022/02/20 06:03:38;;;;;;;6.70;6.07;;;4.00;99.90;;;;;;5059209;28;20263;-74
2022/02/20 06:06:07;;;;;;;6.55;5.95;;;4.00;99.90;;;;;;5072922;28;20236;-73
2022/02/20 06:08:34;;;;;;;7.43;6.72;;;3.90;99.90;;;;;;5059139;28;20271;-73
2022/02/20 06:11:01;;;;;;;7.03;6.40;;;3.90;99.90;;;;;;5058480;28;20195;-73
2022/02/20 06:13:28;;;;;;;6.70;6.03;;;3.80;99.90;;;;;;5057118;28;20218;-75
2022/02/20 06:15:55;;;;;;;6.30;5.80;;;3.80;99.90;;;;;;5058088;28;20226;-75
2022/02/20 06:18:22;;;;;;;6.10;5.60;;;3.90;99.90;;;;;;5058675;28;20704;-75
2022/02/20 06:20:49;;;;;;;6.32;5.80;;;3.90;99.90;;;;;;5067634;28;20212;-75
2022/02/20 06:23:18;;;;;;;5.75;5.28;;;3.90;99.90;;;;;;5056425;28;20674;-75
2022/02/20 06:25:45;;;;;;;6.43;5.93;;;3.90;99.90;;;;;;5060936;28;20214;-74
2022/02/20 06:28:12;;;;;;;7.25;6.65;;;4.00;99.90;;;;;;5065640;28;20560;-75
2022/02/20 06:30:39;;;;;;;7.32;6.63;;;3.90;99.90;;;;;;5057694;28;20206;-75
2022/02/20 06:33:06;;;;;;;6.72;6.13;;;4.00;99.90;;;;;;5059442;28;20218;-75
2022/02/20 06:35:33;;;;;;;7.65;6.95;;;4.00;99.90;;;;;;5063565;28;20218;-75
2022/02/20 06:38:00;;;;;;;7.28;6.60;;;4.00;99.90;;;;;;5060671;28;20226;-75
2022/02/20 06:40:29;;;;;;;6.80;6.20;;;4.10;99.90;;;;;;5057732;28;20263;-76
2022/02/20 06:42:56;;;;;;;6.80;6.18;;;4.00;99.90;;;;;;5061631;28;20241;-75
2022/02/20 06:45:24;;;;;;;6.82;6.32;;;4.00;99.90;;;;;;5060301;28;20276;-76
2022/02/20 06:47:51;;;;;;;7.07;6.47;;;3.90;99.90;;;;;;5063721;28;22575;-75
2022/02/20 06:50:18;;;;;;;6.45;5.80;;;3.90;99.90;;;;;;5059599;28;20207;-74
2022/02/20 06:52:45;;;;;;;6.03;5.53;;;3.90;99.90;;;;;;5061879;28;20218;-76
2022/02/20 06:55:12;;;;;;;6.45;5.85;;;3.90;99.90;;;;;;5059739;28;20305;-76
2022/02/20 06:57:41;;;;;;;5.18;4.80;;;3.90;99.90;;;;;;5065538;28;20237;-76
2022/02/20 07:00:11;;;;;;;5.63;5.13;;;4.00;99.90;;;;;;5074096;28;20195;-76
2022/02/20 07:02:38;;;;;;;5.10;4.70;;;4.00;99.90;;;;;;5060412;28;20602;-76
2022/02/20 07:05:07;;;;;;;5.50;5.00;;;4.00;99.90;;;;;;5063846;28;20225;-75
2022/02/20 07:07:37;;;;;;;5.57;5.10;;;4.00;99.90;;;;;;5062756;28;20237;-75
2022/02/20 07:10:07;;;;;;;4.78;4.45;;;4.00;99.90;;;;;;5063239;28;20222;-76
2022/02/20 07:12:34;;;;;;;4.97;4.63;;;4.10;99.90;;;;;;5058799;28;20249;-75
2022/02/20 07:15:03;;;;;;;5.10;4.70;;;4.20;99.90;;;;;;5060294;28;20234;-75
2022/02/20 07:17:30;;;;;;;5.15;4.75;;;4.20;99.90;;;;;;5064276;28;20229;-76
2022/02/20 07:19:58;;;;;;;5.50;5.10;;;4.20;99.90;;;;;;5063931;28;20202;-75
2022/02/20 07:22:26;;;;;;;5.32;4.93;;;4.20;99.90;;;;;;5061846;28;20191;-75
2022/02/20 07:24:53;;;;;;;5.20;4.80;;;4.20;99.90;;;;;;5060021;28;20214;-75
2022/02/20 07:27:20;;;;;;;5.57;5.07;;;4.30;99.90;;;;;;5062835;28;20917;-75
2022/02/20 07:29:47;;;;;;;5.38;4.90;;;4.80;99.90;;;;;;5062510;28;20248;-74
2022/02/20 07:32:15;;;;;;;5.95;5.45;;;5.80;99.90;;;;;;5061145;28;20202;-76
2022/02/20 07:34:42;;;;;;;5.55;5.07;;;6.80;99.90;;;;;;5064980;28;20264;-74
2022/02/20 07:37:09;;;;;;;5.03;4.63;;;7.50;99.90;;;;;;5064318;28;20222;-76
2022/02/20 07:39:36;;;;;;;5.53;5.00;;;8.30;99.90;;;;;;5063225;28;20214;-76
2022/02/20 07:42:04;;;;;;;5.90;5.40;;;9.00;99.90;;;;;;5062186;28;20198;-76
2022/02/20 07:44:34;;;;;;;6.68;6.10;;;9.40;99.90;;;;;;5062026;28;20214;-77
2022/02/20 07:47:01;;;;;;;5.95;5.45;;;9.80;99.90;;;;;;5065250;28;20558;-76
2022/02/20 07:49:30;;;;;;;6.63;6.00;;;10.20;99.90;;;;;;5062312;28;20313;-75
2022/02/20 07:51:58;;;;;;;5.53;5.03;;;10.60;99.90;;;;;;5065289;28;20194;-78
2022/02/20 07:54:26;;;;;;;5.32;4.93;;;10.80;99.90;;;;;;5070737;28;20257;-75
2022/02/20 07:56:59;;;;;;;4.38;4.05;;;11.20;99.90;;;;;;5063007;28;20218;-76
2022/02/20 07:59:26;;;;;;;5.47;4.53;;;11.50;99.90;;;;;;5073756;28;20237;-75
2022/02/20 08:01:53;;;;;;;4.40;4.00;;;11.80;99.90;;;;;;5063237;28;20291;-76
2022/02/20 08:04:21;;;;;;;3.90;3.60;;;12.10;99.90;;;;;;5064894;28;20620;-75
2022/02/20 08:06:51;;;;;;;4.22;3.83;;;12.30;99.90;;;;;;5059587;28;20194;-75
2022/02/20 08:09:21;;;;;;;5.10;4.60;;;12.20;99.90;;;;;;5063002;28;20586;-75
2022/02/20 08:11:48;;;;;;;5.80;4.05;;;12.40;99.90;;;;;;5062707;28;20283;-75
2022/02/20 08:14:15;;;;;;;9.35;4.25;;;12.70;99.90;;;;;;5065507;28;20222;-75
2022/02/20 08:16:42;;;;;;;4.68;4.28;;;12.60;99.90;;;;;;5063313;28;20199;-75
2022/02/20 08:19:09;;;;;;;4.97;4.57;;;12.80;99.90;;;;;;5060127;28;20289;-77
2022/02/20 08:21:36;;;;;;;5.20;4.70;;;13.10;99.90;;;;;;5065511;28;20202;-77
2022/02/20 08:24:05;;;;;;;5.55;5.03;;;13.20;99.90;;;;;;5067302;28;20229;-77
2022/02/20 08:26:32;;;;;;;4.65;4.25;;;13.20;99.90;;;;;;5061126;28;20255;-75
2022/02/20 08:28:59;;;;;;;4.50;4.10;;;13.50;99.90;;;;;;5065216;28;20272;-77
2022/02/20 08:31:26;;;;;;;4.47;3.97;;;13.70;99.90;;;;;;5063199;28;20203;-74
2022/02/20 08:33:53;;;;;;;5.30;4.80;;;13.80;99.90;;;;;;5060188;28;20218;-75
2022/02/20 08:36:20;;;;;;;5.18;4.68;;;13.90;99.90;;;;;;5061195;28;20211;-74
2022/02/20 08:38:47;;;;;;;5.05;4.55;;;13.80;99.90;;;;;;5061365;28;20758;-75
2022/02/20 08:41:16;;;;;;;5.13;4.55;;;13.10;99.90;;;;;;5063818;28;20247;-75
2022/02/20 08:43:43;;;;;;;5.88;5.38;;;13.10;99.90;;;;;;5063496;28;20703;-73
2022/02/20 08:46:10;;;;;;;5.07;4.68;;;13.20;99.90;;;;;;5076761;28;20618;-76
2022/02/20 08:48:37;;;;;;;5.95;5.18;;;12.90;99.90;;;;;;5063964;28;20229;-74
2022/02/20 08:51:05;;;;;;;5.55;5.05;;;12.50;99.90;;;;;;5061789;28;20628;-76
2022/02/20 08:53:32;;;;;;;5.80;5.05;;;12.30;99.90;;;;;;5062443;28;20267;-74
2022/02/20 08:55:59;;;;;;;5.10;4.60;;;12.10;99.90;;;;;;5065474;28;20214;-74
2022/02/20 08:58:27;;;;;;;6.50;5.90;;;12.40;99.90;;;;;;5069066;28;20237;-74
2022/02/20 09:00:55;;;;;;;6.10;5.45;;;12.90;99.90;;;;;;5064676;28;20194;-76
2022/02/20 09:03:23;;;;;;;6.50;5.38;;;13.50;99.90;;;;;;5069513;28;20245;-75
2022/02/20 09:05:50;;;;;;;6.30;5.70;;;13.80;99.90;;;;;;5069254;28;20268;-75
2022/02/20 09:08:17;;;;;;;6.30;5.70;;;13.90;99.90;;;;;;5065016;28;20265;-75
2022/02/20 09:10:44;;;;;;;5.97;5.35;;;13.80;99.90;;;;;;5069105;28;20206;-75
2022/02/20 09:13:11;;;;;;;5.57;5.00;;;13.60;99.90;;;;;;5068145;28;20263;-75
2022/02/20 09:15:40;;;;;;;6.47;4.50;;;13.50;99.90;;;;;;5071074;22;20309;-75
2022/02/20 09:18:07;;;;;;;5.07;4.55;;;13.80;99.90;;;;;;5045475;28;20231;-75
2022/02/20 09:20:34;;;;;;;5.22;4.72;;;14.00;99.90;;;;;;5039692;28;20199;-75
2022/02/20 09:23:01;;;;;;;5.28;4.75;;;14.30;99.90;;;;;;5051644;28;20284;-74
2022/02/20 09:25:28;;;;;;;5.47;4.90;;;14.50;99.90;;;;;;5058914;28;20223;-75
2022/02/20 09:27:56;;;;;;;5.43;4.90;;;14.50;99.90;;;;;;5047960;28;20191;-74
2022/02/20 09:30:23;;;;;;;5.40;4.90;;;14.60;99.90;;;;;;5044128;28;20199;-74
2022/02/20 09:32:51;;;;;;;5.85;5.35;;;14.40;99.90;;;;;;5045668;28;20290;-77
2022/02/20 09:35:18;;;;;;;5.53;4.95;;;14.10;99.90;;;;;;5048516;28;20237;-75
2022/02/20 09:37:45;;;;;;;6.63;5.47;;;14.20;99.90;;;;;;5044734;28;20578;-74
2022/02/20 09:40:13;;;;;;;6.50;5.80;;;14.40;99.90;;;;;;5047976;28;20202;-76
2022/02/20 09:42:40;;;;;;;7.60;6.40;;;14.50;99.90;;;;;;5048697;28;20203;-75
2022/02/20 09:45:08;;;;;;;7.28;5.28;;;14.50;99.90;;;;;;5040891;28;20222;-76
2022/02/20 09:47:39;;;;;;;5.50;4.95;;;14.60;99.90;;;;;;5047031;28;20187;-76
2022/02/20 09:50:09;;;;;;;6.13;5.47;;;14.40;99.90;;;;;;5044079;28;20761;-75
2022/02/20 09:52:36;;;;;;;5.50;4.63;;;14.60;99.90;;;;;;5045191;28;20577;-75
2022/02/20 09:55:03;;;;;;;4.93;4.53;;;14.60;99.90;;;;;;5043869;28;20227;-76
2022/02/20 09:57:30;;;;;;;6.32;4.88;;;14.80;99.90;;;;;;5048092;28;20830;-74
2022/02/20 09:59:57;;;;;;;5.63;4.75;;;15.10;99.90;;;;;;5050081;28;20226;-73
2022/02/20 10:02:26;;;;;;;4.60;4.13;;;15.60;99.90;;;;;;5049658;28;20621;-75
2022/02/20 10:04:55;;;;;;;4.80;4.40;;;15.50;99.90;;;;;;5057189;28;20229;-74
2022/02/20 10:07:29;;;;;;;4.88;4.40;;;15.60;99.90;;;;;;5066407;28;20218;-75
2022/02/20 10:09:57;;;;;;;5.10;4.60;;;15.40;99.90;;;;;;5052092;28;20224;-73
2022/02/20 10:12:26;;;;;;;4.78;4.38;;;15.20;99.90;;;;;;5048655;28;20222;-76
2022/02/20 10:14:53;;;;;;;4.68;4.25;;;15.20;99.90;;;;;;5051261;28;20222;-75
2022/02/20 10:17:23;;;;;;;4.68;4.28;;;15.30;99.90;;;;;;5052811;28;20191;-75
2022/02/20 10:19:55;;;;;;;5.10;3.92;;;15.20;99.90;;;;;;5051815;28;20243;-75
2022/02/20 10:22:34;;;;;;;5.47;3.88;;;15.20;99.90;;;;;;5049388;28;20203;-74
2022/02/20 10:25:08;;;;;;;3.78;3.47;;;15.10;99.90;;;;;;5048427;28;20317;-75
2022/02/20 10:27:36;;;;;;;3.80;3.50;;;15.30;99.90;;;;;;5052859;28;20194;-74
2022/02/20 10:30:15;;;;;;;5.38;3.58;;;15.50;99.90;;;;;;5045207;28;20214;-74
2022/02/20 10:32:43;;;;;;;6.32;5.07;;;15.70;99.90;;;;;;5047017;28;20259;-75
2022/02/20 10:35:11;;;;;;;4.50;4.10;;;15.80;99.90;;;;;;5049570;28;20923;-74
2022/02/20 10:37:40;;;;;;;5.90;4.90;;;15.80;99.90;;;;;;5054951;28;20218;-74
2022/02/20 10:40:23;;;;;;;5.57;4.15;;;15.80;99.90;;;;;;5045624;28;20759;-74
2022/02/20 10:42:50;;;;;;;4.82;3.95;;;15.30;99.90;;;;;;5046094;28;20249;-73
2022/02/20 10:45:24;;;;;;;5.72;4.57;;;15.30;99.90;;;;;;5046854;28;20238;-75
2022/02/20 10:47:52;;;;;;;4.28;3.88;;;15.30;99.90;;;;;;5042340;28;20544;-75
2022/02/20 10:50:22;;;;;;;4.40;4.00;;;15.60;99.90;;;;;;5050984;28;20297;-75
2022/02/20 10:53:12;;;;;;;4.32;3.55;;;15.60;99.90;;;;;;5046585;28;20312;-75
2022/02/20 10:55:41;;;;;;;4.50;4.10;;;15.60;99.90;;;;;;5041309;28;20234;-75
2022/02/20 10:58:13;;;;;;;5.30;3.53;;;15.40;99.90;;;;;;5039770;28;20223;-73
2022/02/20 11:00:52;;;;;;;4.15;3.58;;;15.20;99.90;;;;;;5041773;28;20241;-73
2022/02/20 11:03:20;;;;;;;4.43;4.03;;;14.90;99.90;;;;;;5039769;28;20199;-72
2022/02/20 11:05:47;;;;;;;4.50;4.10;;;14.80;99.90;;;;;;5025022;28;20218;-74
2022/02/20 11:08:18;;;;;;;4.90;4.40;;;14.90;99.90;;;;;;5027227;28;20199;-74
2022/02/20 11:10:46;;;;;;;4.82;4.43;;;14.70;99.90;;;;;;5016604;28;20224;-75
2022/02/20 11:13:15;;;;;;;4.00;3.60;;;14.80;99.90;;;;;;5024969;28;20200;-74
2022/02/20 11:15:43;;;;;;;4.47;3.83;;;14.70;99.90;;;;;;5020889;28;20246;-73
2022/02/20 11:18:14;;;;;;;5.03;4.30;;;14.80;99.90;;;;;;5023544;28;20752;-74
2022/02/20 11:20:43;;;;;;;5.18;4.03;;;14.50;99.90;;;;;;5021352;28;20223;-73
2022/02/20 11:23:11;;;;;;;4.30;3.67;;;14.40;99.90;;;;;;5016533;28;20591;-73
2022/02/20 11:25:44;;;;;;;3.80;3.50;;;14.40;99.90;;;;;;5022060;28;20231;-74
2022/02/20 11:28:11;;;;;;;4.05;3.63;;;14.30;99.90;;;;;;5015804;28;20200;-73
2022/02/20 11:30:38;;;;;;;4.68;3.85;;;14.10;99.90;;;;;;5023709;28;20223;-74
2022/02/20 11:33:08;;;;;;;4.82;4.43;;;14.20;99.90;;;;;;5041023;28;20222;-72
2022/02/20 11:35:40;;;;;;;5.63;4.53;;;14.60;99.90;;;;;;5022855;28;20216;-73
2022/02/20 11:38:10;;;;;;;4.63;4.07;;;15.30;99.90;;;;;;5024274;28;20215;-73
2022/02/20 11:40:54;;;;;;;3.83;3.33;;;15.20;99.90;;;;;;5021506;28;20222;-74
2022/02/20 11:43:22;;;;;;;4.22;3.72;;;15.20;99.90;;;;;;5023509;28;20249;-73
2022/02/20 11:46:11;;;;;;;4.30;3.90;;;15.10;99.90;;;;;;5027290;28;20219;-74
2022/02/20 11:48:59;;;;;;;4.07;3.67;;;15.10;99.90;;;;;;5025748;28;20281;-74
2022/02/20 11:51:29;;;;;;;4.13;3.72;;;15.20;99.90;;;;;;5021985;28;20329;-74
2022/02/20 11:54:13;;;;;;;5.20;4.25;;;15.40;99.90;;;;;;5023071;28;20273;-73
2022/02/20 11:56:42;;;;;;;3.60;3.30;;;15.30;99.90;;;;;;5022533;28;20736;-74
2022/02/20 11:59:16;;;;;;;3.85;3.55;;;15.60;99.90;;;;;;5019492;28;20251;-74
2022/02/20 12:02:07;;;;;;;3.88;3.55;;;15.80;99.90;;;;;;5016440;28;20203;-74
2022/02/20 12:05:06;;;;;;;4.03;3.72;;;16.10;99.90;;;;;;5021317;28;20219;-75
2022/02/20 12:07:38;;;;;;;3.72;3.42;;;15.90;99.90;;;;;;5019235;28;20262;-74
2022/02/20 12:10:30;;;;;;;3.88;3.47;;;15.80;99.90;;;;;;5013214;28;20216;-74
2022/02/20 12:13:19;;;;;;;3.63;3.30;;;15.90;99.90;;;;;;5024030;28;20204;-75
2022/02/20 12:15:48;;;;;;;3.88;3.58;;;16.10;99.90;;;;;;5050648;28;20231;-75
2022/02/20 12:18:30;;;;;;;3.25;3.05;;;16.00;99.90;;;;;;5045801;28;20223;-75
2022/02/20 12:21:19;;;;;;;3.95;3.47;;;15.90;99.90;;;;;;5039994;28;20279;-76
2022/02/20 12:23:50;;;;;;;3.85;3.45;;;15.90;99.90;;;;;;5047614;28;20209;-76
2022/02/20 12:26:44;;;;;;;3.05;2.85;;;16.10;99.90;;;;;;5047787;28;20227;-75
2022/02/20 12:29:15;;;;;;;3.50;3.20;;;15.70;99.90;;;;;;5040847;28;20250;-74
2022/02/20 12:32:02;;;;;;;3.55;3.25;;;15.60;99.90;;;;;;5047852;28;20203;-74
2022/02/20 12:34:46;;;;;;;3.92;3.40;;;15.50;99.90;;;;;;5044184;28;20273;-75
2022/02/20 12:37:14;;;;;;;4.20;3.88;;;15.50;99.90;;;;;;5044073;28;20256;-75
2022/02/20 12:39:41;;;;;;;5.25;3.67;;;15.60;99.90;;;;;;5040521;28;20276;-76
2022/02/20 12:42:09;;;;;;;2.95;2.75;;;15.70;99.90;;;;;;5044527;28;20696;-74
2022/02/20 12:44:42;;;;;;;2.55;2.35;;;15.90;99.90;;;;;;5045312;28;20211;-76
2022/02/20 12:47:11;;;;;;;2.85;2.55;;;15.90;99.90;;;;;;5041500;28;20266;-75
2022/02/20 12:49:42;;;;;;;2.90;2.53;;;16.10;99.90;;;;;;5044428;28;20242;-75
2022/02/20 12:52:10;;;;;;;3.13;2.83;;;16.30;99.90;;;;;;5043130;28;20264;-76
2022/02/20 12:54:37;;;;;;;2.58;2.38;;;16.30;99.90;;;;;;5043339;28;20659;-76
2022/02/20 12:57:06;;;;;;;2.90;2.40;;;16.30;99.90;;;;;;5051023;28;20225;-76